Time;durP1;ratioP1;P1;durP2;ratioP2;P2;SDS_P1;SDS_P2;PMS_P1;PMS_P2;Temp;Humidity;BMP_temperature;BMP_pressure;BME280_temperature;BME280_humidity;BME280_pressure;Samples;Min_cycle;Max_cycle;Signal;HPM_P1;HPM_P2
2023/07/22 00:00:46;;;;;;;1.47;1.37;;;;;;;;;;5004911;28;20569;-26
2023/07/22 00:03:14;;;;;;;2.10;1.90;;;;;;;;;;4993742;28;20209;-27
2023/07/22 00:05:42;;;;;;;2.00;1.70;;;;;;;;;;5005225;28;20211;-25
2023/07/22 00:08:12;;;;;;;1.60;1.50;;;;;;;;;;5006018;28;20200;-25
2023/07/22 00:10:47;;;;;;;1.70;1.60;;;;;;;;;;5010233;28;20258;-26
2023/07/22 00:13:17;;;;;;;1.60;1.50;;;;;;;;;;5006010;28;20298;-24
2023/07/22 00:15:47;;;;;;;2.00;1.80;;;;;;;;;;5013437;28;20276;-25
2023/07/22 00:18:19;;;;;;;2.43;2.23;;;;;;;;;;5011912;28;20205;-25
2023/07/22 00:20:47;;;;;;;2.33;2.00;;;;;;;;;;5423575;22;20237;-25
2023/07/22 00:23:24;;;;;;;2.03;1.80;;;;;;;;;;5048401;28;20196;-25
2023/07/22 00:25:59;;;;;;;2.53;1.60;;;;;;;;;;5036413;28;20203;-28
2023/07/22 00:28:34;;;;;;;1.50;1.40;;;;;;;;;;5043397;28;20247;-27
2023/07/22 00:31:28;;;;;;;1.83;1.40;;;;;;;;;;5023068;28;20227;-27
2023/07/22 00:33:56;;;;;;;1.50;1.40;;;;;;;;;;5018477;28;20220;-26
2023/07/22 00:36:41;;;;;;;1.60;1.50;;;;;;;;;;5028517;28;20227;-25
2023/07/22 00:39:16;;;;;;;1.37;1.27;;;;;;;;;;5033296;28;20224;-25
2023/07/22 00:41:50;;;;;;;1.50;1.40;;;;;;;;;;5025055;28;20204;-25
2023/07/22 00:44:22;;;;;;;1.60;1.50;;;;;;;;;;5025061;28;20213;-28
2023/07/22 00:47:13;;;;;;;2.97;1.57;;;;;;;;;;5032206;28;20608;-28
2023/07/22 00:49:55;;;;;;;2.30;1.73;;;;;;;;;;5028378;28;20331;-28
2023/07/22 00:52:54;;;;;;;2.30;1.57;;;;;;;;;;5376365;22;20255;-26
2023/07/22 00:55:52;;;;;;;1.57;1.47;;;;;;;;;;5054272;28;20226;-25
2023/07/22 00:58:29;;;;;;;2.33;1.50;;;;;;;;;;5048025;28;20208;-28
2023/07/22 01:01:12;;;;;;;2.50;1.70;;;;;;;;;;5015969;28;20211;-25
2023/07/22 01:03:46;;;;;;;2.47;1.67;;;;;;;;;;5021221;28;20239;-25
2023/07/22 01:06:33;;;;;;;1.40;1.30;;;;;;;;;;5025470;28;20207;-26
2023/07/22 01:09:11;;;;;;;1.47;1.33;;;;;;;;;;5024492;28;20224;-25
2023/07/22 01:11:53;;;;;;;2.00;1.53;;;;;;;;;;5018731;28;20226;-28
2023/07/22 01:14:30;;;;;;;1.57;1.47;;;;;;;;;;5021494;28;20212;-27
2023/07/22 01:17:05;;;;;;;1.50;1.40;;;;;;;;;;5012393;28;20207;-26
2023/07/22 01:19:44;;;;;;;1.70;1.40;;;;;;;;;;5016863;28;20321;-25
2023/07/22 01:22:28;;;;;;;1.93;1.53;;;;;;;;;;5017213;28;20203;-27
2023/07/22 01:25:00;;;;;;;1.80;1.47;;;;;;;;;;5033158;28;20212;-28
2023/07/22 01:27:35;;;;;;;2.83;1.40;;;;;;;;;;5014485;28;20209;-25
2023/07/22 01:30:11;;;;;;;1.80;1.60;;;;;;;;;;5023290;28;20235;-25
2023/07/22 01:32:56;;;;;;;1.93;1.50;;;;;;;;;;5032885;28;20207;-27
2023/07/22 01:35:38;;;;;;;2.03;1.63;;;;;;;;;;5024189;28;20212;-26
2023/07/22 01:38:21;;;;;;;2.00;1.60;;;;;;;;;;5032259;28;20210;-28
2023/07/22 01:41:03;;;;;;;2.30;1.70;;;;;;;;;;5027856;28;20204;-25
2023/07/22 01:43:34;;;;;;;2.03;1.27;;;;;;;;;;5024788;28;20255;-27
2023/07/22 01:46:06;;;;;;;1.83;1.40;;;;;;;;;;5012978;28;20235;-26
2023/07/22 01:48:46;;;;;;;2.70;1.80;;;;;;;;;;5012423;28;20229;-27
2023/07/22 01:51:20;;;;;;;1.30;1.20;;;;;;;;;;5016012;28;20237;-26
2023/07/22 01:53:57;;;;;;;1.80;1.50;;;;;;;;;;5020618;28;20218;-26
2023/07/22 01:56:39;;;;;;;2.20;1.40;;;;;;;;;;5019068;28;20287;-25
2023/07/22 01:59:12;;;;;;;1.40;1.30;;;;;;;;;;5015451;28;20318;-26
2023/07/22 02:01:55;;;;;;;1.53;1.43;;;;;;;;;;5032254;28;20204;-26
2023/07/22 02:04:37;;;;;;;2.23;1.20;;;;;;;;;;5031918;28;20227;-26
2023/07/22 02:07:16;;;;;;;2.47;1.30;;;;;;;;;;5019076;28;20286;-29
2023/07/22 02:12:35;;;;;;;4.43;1.50;;;;;;;;;;5024496;28;20234;-28
2023/07/22 02:15:28;;;;;;;1.30;1.20;;;;;;;;;;5022574;28;20208;-28
2023/07/22 02:18:14;;;;;;;1.83;1.37;;;;;;;;;;5020932;28;20498;-25
2023/07/22 02:20:57;;;;;;;1.50;1.40;;;;;;;;;;5020097;28;20207;-26
2023/07/22 02:23:31;;;;;;;1.30;1.20;;;;;;;;;;5011499;28;20281;-25
2023/07/22 02:26:06;;;;;;;1.30;1.20;;;;;;;;;;5013634;28;20203;-28
2023/07/22 02:28:42;;;;;;;1.20;1.10;;;;;;;;;;5020485;28;20231;-27
2023/07/22 02:31:19;;;;;;;1.33;1.23;;;;;;;;;;5023522;28;20242;-26
2023/07/22 02:33:53;;;;;;;1.53;1.30;;;;;;;;;;5032512;28;20203;-27
2023/07/22 02:36:24;;;;;;;1.23;1.10;;;;;;;;;;5024177;28;20271;-25
2023/07/22 02:38:54;;;;;;;2.43;1.53;;;;;;;;;;5022558;28;20301;-26
2023/07/22 02:41:29;;;;;;;1.50;1.40;;;;;;;;;;5016265;28;20216;-28
2023/07/22 02:44:03;;;;;;;3.13;1.10;;;;;;;;;;5029316;28;20225;-25
2023/07/22 02:46:37;;;;;;;1.50;1.37;;;;;;;;;;5011165;28;20216;-28
2023/07/22 02:49:10;;;;;;;1.27;1.17;;;;;;;;;;5010639;28;20222;-25
2023/07/22 02:51:38;;;;;;;3.27;1.30;;;;;;;;;;5016913;28;20218;-28
2023/07/22 02:54:09;;;;;;;1.20;1.20;;;;;;;;;;5030227;28;20284;-25
2023/07/22 02:56:39;;;;;;;1.40;1.30;;;;;;;;;;5020865;28;20207;-27
2023/07/22 02:59:14;;;;;;;1.80;1.50;;;;;;;;;;5412585;22;20335;-28
2023/07/22 03:01:44;;;;;;;1.73;1.20;;;;;;;;;;4994933;28;20207;-26
2023/07/22 03:04:17;;;;;;;1.67;1.40;;;;;;;;;;4990468;28;20250;-26
2023/07/22 03:06:49;;;;;;;1.57;1.10;;;;;;;;;;4987270;28;20295;-28
2023/07/22 03:09:17;;;;;;;1.60;1.50;;;;;;;;;;4983333;28;20312;-27
2023/07/22 03:11:50;;;;;;;1.30;1.20;;;;;;;;;;4987692;28;20271;-25
2023/07/22 03:14:25;;;;;;;1.50;1.40;;;;;;;;;;4985205;28;20208;-25
2023/07/22 03:16:54;;;;;;;2.50;1.33;;;;;;;;;;4997195;28;20206;-26
2023/07/22 03:19:28;;;;;;;1.33;1.23;;;;;;;;;;4984761;28;20318;-27
2023/07/22 03:21:59;;;;;;;1.50;1.40;;;;;;;;;;4981076;28;20196;-28
2023/07/22 03:24:28;;;;;;;1.63;1.43;;;;;;;;;;4990947;28;20452;-27
2023/07/22 03:26:59;;;;;;;1.40;1.30;;;;;;;;;;4985359;28;20287;-29
2023/07/22 03:29:34;;;;;;;1.60;1.30;;;;;;;;;;4988008;28;20235;-26
2023/07/22 03:32:07;;;;;;;2.20;1.60;;;;;;;;;;4990866;28;20226;-25
2023/07/22 03:34:44;;;;;;;1.40;1.30;;;;;;;;;;4988533;28;20213;-25
2023/07/22 03:37:14;;;;;;;1.23;1.13;;;;;;;;;;4976221;28;20234;-27
2023/07/22 03:39:46;;;;;;;1.33;1.20;;;;;;;;;;4998759;28;20227;-24
2023/07/22 03:42:25;;;;;;;1.03;1.03;;;;;;;;;;4990871;28;20201;-26
2023/07/22 03:44:57;;;;;;;1.50;1.40;;;;;;;;;;5005174;28;20282;-28
2023/07/22 03:47:26;;;;;;;3.07;1.50;;;;;;;;;;5010713;28;20227;-25
2023/07/22 03:49:56;;;;;;;2.43;1.13;;;;;;;;;;5008167;28;20224;-26
2023/07/22 03:52:28;;;;;;;1.30;1.20;;;;;;;;;;5000125;28;20239;-29
2023/07/22 03:55:01;;;;;;;1.30;1.20;;;;;;;;;;5000559;28;20200;-25
2023/07/22 03:57:45;;;;;;;1.37;1.27;;;;;;;;;;5245159;22;20242;-26
2023/07/22 04:00:26;;;;;;;1.03;1.03;;;;;;;;;;5029061;28;20223;-26
2023/07/22 04:02:58;;;;;;;0.90;0.90;;;;;;;;;;5013274;28;20261;-26
2023/07/22 04:05:42;;;;;;;0.77;0.77;;;;;;;;;;5020282;28;20210;-26
2023/07/22 04:08:14;;;;;;;1.70;1.40;;;;;;;;;;5026560;28;20296;-25
2023/07/22 04:10:43;;;;;;;1.10;1.10;;;;;;;;;;5021234;28;20214;-24
2023/07/22 04:13:29;;;;;;;2.43;1.40;;;;;;;;;;5026894;28;20203;-26
2023/07/22 04:16:02;;;;;;;1.30;1.10;;;;;;;;;;5026655;28;20294;-26
2023/07/22 04:18:35;;;;;;;1.30;1.20;;;;;;;;;;5019157;28;20234;-26
2023/07/22 04:21:21;;;;;;;1.10;1.10;;;;;;;;;;5020808;28;20211;-26
2023/07/22 04:23:54;;;;;;;1.63;1.53;;;;;;;;;;5015592;28;20238;-24
2023/07/22 04:26:35;;;;;;;1.40;1.30;;;;;;;;;;5031343;28;20214;-27
2023/07/22 04:29:10;;;;;;;1.57;1.00;;;;;;;;;;5025277;28;20226;-26
2023/07/22 04:31:52;;;;;;;2.30;1.30;;;;;;;;;;5018609;28;20229;-25
2023/07/22 04:34:21;;;;;;;1.87;1.20;;;;;;;;;;5014423;28;20293;-26
2023/07/22 04:37:02;;;;;;;1.63;1.53;;;;;;;;;;5026992;28;20221;-27
2023/07/22 04:39:41;;;;;;;1.67;1.47;;;;;;;;;;5019235;28;20673;-27
2023/07/22 04:42:29;;;;;;;2.50;1.37;;;;;;;;;;5019582;28;20210;-26
2023/07/22 04:45:22;;;;;;;2.67;1.30;;;;;;;;;;5023667;28;20218;-26
2023/07/22 04:48:11;;;;;;;1.73;1.27;;;;;;;;;;5013077;28;20207;-25
2023/07/22 04:50:53;;;;;;;2.27;1.20;;;;;;;;;;5013734;28;20218;-24
2023/07/22 04:53:40;;;;;;;1.70;1.20;;;;;;;;;;5110347;22;20340;-28
2023/07/22 04:56:19;;;;;;;3.93;1.40;;;;;;;;;;4983853;28;20298;-24
2023/07/22 04:58:54;;;;;;;1.80;1.50;;;;;;;;;;4990411;28;20224;-28
2023/07/22 05:01:30;;;;;;;1.43;1.20;;;;;;;;;;4993767;28;20262;-25
2023/07/22 05:04:08;;;;;;;1.73;1.30;;;;;;;;;;4994239;28;20227;-29
2023/07/22 05:06:49;;;;;;;2.60;1.20;;;;;;;;;;4982983;28;20276;-27
2023/07/22 05:09:33;;;;;;;1.23;1.17;;;;;;;;;;4992381;28;20239;-27
2023/07/22 05:12:10;;;;;;;1.70;1.60;;;;;;;;;;4992815;28;20232;-27
2023/07/22 05:14:46;;;;;;;1.70;1.47;;;;;;;;;;4994017;28;20214;-28
2023/07/22 05:25:07;;;;;;;2.23;1.47;;;;;;;;;;5012014;28;20305;-28
2023/07/22 05:27:42;;;;;;;1.83;1.43;;;;;;;;;;5014275;28;20262;-28
2023/07/22 05:30:12;;;;;;;1.97;1.87;;;;;;;;;;5032318;28;20256;-28
2023/07/22 05:32:59;;;;;;;2.03;1.70;;;;;;;;;;5032059;28;20226;-26
2023/07/22 05:35:33;;;;;;;2.70;2.33;;;;;;;;;;5016220;28;20221;-27
2023/07/22 05:38:05;;;;;;;2.27;1.90;;;;;;;;;;5028026;28;20293;-30
2023/07/22 05:40:37;;;;;;;1.70;1.60;;;;;;;;;;5027990;28;20250;-26
2023/07/22 05:43:04;;;;;;;2.00;1.90;;;;;;;;;;5017290;28;20294;-25
2023/07/22 05:45:38;;;;;;;2.60;1.97;;;;;;;;;;5028760;28;20201;-25
2023/07/22 05:48:32;;;;;;;1.90;1.80;;;;;;;;;;5011380;28;20208;-23
2023/07/22 05:51:04;;;;;;;1.70;1.60;;;;;;;;;;5018453;28;20207;-28
2023/07/22 05:53:36;;;;;;;2.70;2.13;;;;;;;;;;5031335;28;20223;-27
2023/07/22 05:56:04;;;;;;;2.27;2.00;;;;;;;;;;5271927;22;20233;-30
2023/07/22 05:58:32;;;;;;;2.40;2.20;;;;;;;;;;5010113;28;20234;-28
2023/07/22 06:00:59;;;;;;;1.73;1.63;;;;;;;;;;5022402;28;20301;-28
2023/07/22 06:03:32;;;;;;;2.07;1.73;;;;;;;;;;5018111;28;20223;-30
2023/07/22 06:06:00;;;;;;;1.97;1.80;;;;;;;;;;5016445;28;20295;-27
2023/07/22 06:08:27;;;;;;;4.67;2.00;;;;;;;;;;5009863;28;20322;-32
2023/07/22 06:10:54;;;;;;;1.77;1.67;;;;;;;;;;5018462;28;20219;-27
2023/07/22 06:13:23;;;;;;;1.90;1.80;;;;;;;;;;5020233;28;20261;-31
2023/07/22 06:15:50;;;;;;;2.73;2.10;;;;;;;;;;5015583;28;20284;-28
2023/07/22 06:18:18;;;;;;;2.63;2.00;;;;;;;;;;5007906;28;20214;-27
2023/07/22 06:20:45;;;;;;;3.47;2.37;;;;;;;;;;5011340;28;20573;-31
2023/07/22 06:23:12;;;;;;;2.87;2.20;;;;;;;;;;5019871;28;20197;-27
2023/07/22 06:25:39;;;;;;;4.17;2.10;;;;;;;;;;5023399;28;20213;-27
2023/07/22 06:28:06;;;;;;;2.37;1.93;;;;;;;;;;5017626;28;20305;-32
2023/07/22 06:30:35;;;;;;;1.70;1.60;;;;;;;;;;5018956;28;20222;-30
2023/07/22 06:33:02;;;;;;;3.13;2.00;;;;;;;;;;5024247;28;20256;-28
2023/07/22 06:35:30;;;;;;;2.87;2.00;;;;;;;;;;5021075;28;20564;-29
2023/07/22 06:37:57;;;;;;;2.40;2.20;;;;;;;;;;5022745;28;20213;-28
2023/07/22 06:40:24;;;;;;;2.47;2.00;;;;;;;;;;5037888;28;20701;-28
2023/07/22 06:42:51;;;;;;;4.10;2.10;;;;;;;;;;5018501;28;20438;-31
2023/07/22 06:45:18;;;;;;;2.23;2.03;;;;;;;;;;5023869;28;20210;-30
2023/07/22 06:47:47;;;;;;;2.13;1.93;;;;;;;;;;5012714;28;20206;-30
2023/07/22 06:50:14;;;;;;;2.63;2.03;;;;;;;;;;5020653;28;20305;-28
2023/07/22 06:52:41;;;;;;;3.73;2.23;;;;;;;;;;5018358;28;20232;-28
2023/07/22 06:55:09;;;;;;;2.57;1.93;;;;;;;;;;5019164;28;20212;-29
2023/07/22 06:57:37;;;;;;;2.40;1.97;;;;;;;;;;5010177;28;20218;-40
2023/07/22 07:00:05;;;;;;;2.50;1.90;;;;;;;;;;5017625;28;20288;-34
2023/07/22 07:02:32;;;;;;;2.40;2.20;;;;;;;;;;5017683;28;20237;-41
2023/07/22 07:05:01;;;;;;;2.10;1.90;;;;;;;;;;5025012;28;20216;-34
2023/07/22 07:07:28;;;;;;;3.40;1.97;;;;;;;;;;5018167;28;20206;-37
2023/07/22 07:09:55;;;;;;;2.37;2.17;;;;;;;;;;5014611;28;20574;-32
2023/07/22 07:12:22;;;;;;;2.63;1.93;;;;;;;;;;5013679;28;20222;-38
2023/07/22 07:14:51;;;;;;;2.70;2.50;;;;;;;;;;5018222;28;20199;-38
2023/07/22 07:17:19;;;;;;;2.70;2.07;;;;;;;;;;5020218;28;20202;-37
2023/07/22 07:19:46;;;;;;;2.70;2.37;;;;;;;;;;5017059;28;20308;-35
2023/07/22 07:22:14;;;;;;;2.17;1.70;;;;;;;;;;5018109;28;20225;-31
2023/07/22 07:24:42;;;;;;;3.38;2.13;;;;;;;;;;5025835;28;20205;-34
2023/07/22 07:27:10;;;;;;;2.00;1.90;;;;;;;;;;5016163;28;20230;-38
2023/07/22 07:29:37;;;;;;;2.10;1.90;;;;;;;;;;5017580;28;20237;-38
2023/07/22 07:32:05;;;;;;;2.50;2.30;;;;;;;;;;5013067;28;20219;-40
2023/07/22 07:34:32;;;;;;;4.18;2.00;;;;;;;;;;5026197;28;20290;-33
2023/07/22 07:36:59;;;;;;;3.92;2.08;;;;;;;;;;5017289;28;20299;-35
2023/07/22 07:39:28;;;;;;;2.17;1.98;;;;;;;;;;5025283;28;20228;-40
2023/07/22 07:41:56;;;;;;;2.45;2.22;;;;;;;;;;5018064;28;20211;-40
2023/07/22 07:44:23;;;;;;;2.35;2.15;;;;;;;;;;5027423;28;20235;-32
2023/07/22 07:46:50;;;;;;;4.40;2.05;;;;;;;;;;5025011;28;20203;-38
2023/07/22 07:49:17;;;;;;;2.17;1.98;;;;;;;;;;5013532;28;20324;-39
2023/07/22 07:51:44;;;;;;;2.78;1.67;;;;;;;;;;5018138;28;20612;-32
2023/07/22 07:54:11;;;;;;;3.95;1.90;;;;;;;;;;5019595;28;20228;-40
2023/07/22 07:56:40;;;;;;;1.83;1.73;;;;;;;;;;5011066;28;20219;-34
2023/07/22 07:59:09;;;;;;;2.72;1.88;;;;;;;;;;5026396;28;20229;-40
2023/07/22 08:01:37;;;;;;;1.90;1.73;;;;;;;;;;5025219;28;20205;-41
2023/07/22 08:04:04;;;;;;;1.70;1.60;;;;;;;;;;5026807;28;20208;-39
2023/07/22 08:06:31;;;;;;;1.50;1.40;;;;;;;;;;5024760;28;20259;-38
2023/07/22 08:08:58;;;;;;;2.28;1.90;;;;;;;;;;5017667;28;20230;-37
2023/07/22 08:11:26;;;;;;;2.45;1.75;;;;;;;;;;5019139;28;20655;-37
2023/07/22 08:13:55;;;;;;;1.70;1.60;;;;;;;;;;5020385;28;20225;-32
2023/07/22 08:16:22;;;;;;;2.53;1.92;;;;;;;;;;5026979;28;20243;-31
2023/07/22 08:18:49;;;;;;;2.42;1.67;;;;;;;;;;5028119;28;20586;-39
2023/07/22 08:21:16;;;;;;;1.50;1.40;;;;;;;;;;5018676;28;20204;-39
2023/07/22 08:23:45;;;;;;;2.60;1.58;;;;;;;;;;5024635;28;20209;-36
2023/07/22 08:26:12;;;;;;;2.75;1.75;;;;;;;;;;5019486;28;20325;-40
2023/07/22 08:28:40;;;;;;;2.90;1.75;;;;;;;;;;5020761;28;20239;-35
2023/07/22 08:31:08;;;;;;;2.13;1.80;;;;;;;;;;5027157;28;20657;-32
2023/07/22 08:33:45;;;;;;;2.42;1.80;;;;;;;;;;5016392;28;20232;-36
2023/07/22 08:36:12;;;;;;;1.60;1.33;;;;;;;;;;5026216;28;20207;-33
2023/07/22 08:38:39;;;;;;;1.60;1.50;;;;;;;;;;5025599;28;20275;-40
2023/07/22 08:41:07;;;;;;;1.92;1.48;;;;;;;;;;5020901;28;20296;-37
2023/07/22 08:43:36;;;;;;;2.13;1.60;;;;;;;;;;5012289;28;20220;-37
2023/07/22 08:46:03;;;;;;;1.58;1.48;;;;;;;;;;5028842;28;20208;-39
2023/07/22 08:48:33;;;;;;;1.90;1.80;;;;;;;;;;5029984;28;20316;-38
2023/07/22 08:51:04;;;;;;;1.67;1.20;;;;;;;;;;5021322;28;20211;-39
2023/07/22 08:53:33;;;;;;;1.77;1.30;;;;;;;;;;5018929;28;20221;-36
2023/07/22 08:56:00;;;;;;;1.75;1.50;;;;;;;;;;5011593;28;20217;-40
2023/07/22 08:58:28;;;;;;;3.00;1.30;;;;;;;;;;5010663;28;20233;-38
2023/07/22 09:00:55;;;;;;;1.45;1.35;;;;;;;;;;5019511;28;20562;-35
2023/07/22 09:03:23;;;;;;;1.92;1.48;;;;;;;;;;5011965;28;20208;-34
2023/07/22 09:05:51;;;;;;;1.38;1.10;;;;;;;;;;5010847;28;20198;-38
2023/07/22 09:08:18;;;;;;;1.35;1.15;;;;;;;;;;5016348;28;20206;-37
2023/07/22 09:10:46;;;;;;;1.50;1.40;;;;;;;;;;5015045;28;21179;-35
2023/07/22 09:13:15;;;;;;;1.13;1.13;;;;;;;;;;5022950;28;20706;-43
2023/07/22 09:15:42;;;;;;;1.63;1.52;;;;;;;;;;5020760;28;20298;-38
2023/07/22 09:18:09;;;;;;;2.58;1.35;;;;;;;;;;5022793;28;20201;-37
2023/07/22 09:20:36;;;;;;;1.33;1.23;;;;;;;;;;5013953;28;20209;-35
2023/07/22 09:23:06;;;;;;;3.17;1.33;;;;;;;;;;5025155;28;20213;-38
2023/07/22 09:25:34;;;;;;;1.30;1.20;;;;;;;;;;5026272;28;20210;-42
2023/07/22 09:28:01;;;;;;;1.65;1.27;;;;;;;;;;5011427;28;20301;-38
2023/07/22 09:30:29;;;;;;;1.40;1.33;;;;;;;;;;5013337;28;20204;-36
2023/07/22 09:32:57;;;;;;;1.50;1.40;;;;;;;;;;5007022;28;20220;-37
2023/07/22 09:35:24;;;;;;;1.90;1.38;;;;;;;;;;5010570;28;20673;-38
2023/07/22 09:37:51;;;;;;;1.88;1.42;;;;;;;;;;5017856;28;20212;-39
2023/07/22 09:40:21;;;;;;;1.42;1.42;;;;;;;;;;5021451;28;20233;-39
2023/07/22 09:42:49;;;;;;;0.95;0.95;;;;;;;;;;5019809;28;20289;-41
2023/07/22 09:45:16;;;;;;;1.20;1.08;;;;;;;;;;5016286;28;20207;-34
2023/07/22 09:47:45;;;;;;;2.15;1.30;;;;;;;;;;5019101;28;20213;-35
2023/07/22 09:50:13;;;;;;;1.67;1.20;;;;;;;;;;5016764;28;20338;-39
2023/07/22 09:52:47;;;;;;;1.40;1.20;;;;;;;;;;5016270;28;20222;-38
2023/07/22 09:55:14;;;;;;;4.03;1.92;;;;;;;;;;5008845;28;20208;-35
2023/07/22 09:57:45;;;;;;;1.67;1.58;;;;;;;;;;5014298;28;20210;-37
2023/07/22 10:00:14;;;;;;;1.83;1.40;;;;;;;;;;5007484;28;20230;-37
2023/07/22 10:02:42;;;;;;;1.65;1.17;;;;;;;;;;5008112;28;20334;-34
2023/07/22 10:05:10;;;;;;;1.52;1.35;;;;;;;;;;5011180;28;20687;-34
2023/07/22 10:07:39;;;;;;;1.60;1.50;;;;;;;;;;5023481;28;20211;-34
2023/07/22 10:10:07;;;;;;;1.63;1.45;;;;;;;;;;5008278;28;20252;-40
2023/07/22 10:12:35;;;;;;;3.10;1.10;;;;;;;;;;5013176;28;20206;-38
2023/07/22 10:15:03;;;;;;;1.77;1.50;;;;;;;;;;5008142;28;20195;-37
2023/07/22 10:17:31;;;;;;;2.42;1.30;;;;;;;;;;5015948;28;20198;-38
2023/07/22 10:19:58;;;;;;;1.58;1.48;;;;;;;;;;5021636;28;20219;-40
2023/07/22 10:22:26;;;;;;;1.40;1.30;;;;;;;;;;5012051;28;20209;-39
2023/07/22 10:24:54;;;;;;;1.73;1.30;;;;;;;;;;5024766;28;20199;-37
2023/07/22 10:27:21;;;;;;;1.40;1.30;;;;;;;;;;5020757;28;20202;-40
2023/07/22 10:29:48;;;;;;;1.60;1.50;;;;;;;;;;5018807;28;20227;-37
2023/07/22 10:32:19;;;;;;;1.45;1.35;;;;;;;;;;5027293;28;20245;-34
2023/07/22 10:34:46;;;;;;;2.75;1.27;;;;;;;;;;5023229;28;20226;-33
2023/07/22 10:37:13;;;;;;;1.50;1.13;;;;;;;;;;5015482;28;20209;-33
2023/07/22 10:39:40;;;;;;;2.45;1.35;;;;;;;;;;5018581;28;20225;-38
2023/07/22 10:42:07;;;;;;;1.48;1.30;;;;;;;;;;5016946;28;20215;-32
2023/07/22 10:44:35;;;;;;;4.35;1.20;;;;;;;;;;5007600;28;20210;-35
2023/07/22 10:47:03;;;;;;;1.83;1.55;;;;;;;;;;5010608;28;20297;-36
2023/07/22 10:49:44;;;;;;;1.60;1.50;;;;;;;;;;5011008;28;20223;-35
2023/07/22 10:52:13;;;;;;;1.05;0.98;;;;;;;;;;5016043;28;20195;-41
2023/07/22 10:54:40;;;;;;;3.70;1.88;;;;;;;;;;5022427;28;20233;-35
2023/07/22 10:57:22;;;;;;;1.42;1.00;;;;;;;;;;5016641;28;20211;-36
2023/07/22 10:59:50;;;;;;;1.45;1.27;;;;;;;;;;5026047;28;20237;-37
2023/07/22 11:02:24;;;;;;;3.83;1.40;;;;;;;;;;5027156;28;20198;-36
2023/07/22 11:04:53;;;;;;;1.70;1.60;;;;;;;;;;5026570;28;20385;-33
2023/07/22 11:07:31;;;;;;;2.80;1.10;;;;;;;;;;5014783;28;20211;-35
2023/07/22 11:09:59;;;;;;;1.77;1.17;;;;;;;;;;5025066;28;20229;-39
2023/07/22 11:12:26;;;;;;;2.67;1.10;;;;;;;;;;5017856;28;20202;-38
2023/07/22 11:14:54;;;;;;;3.05;1.40;;;;;;;;;;5027716;28;20547;-35
2023/07/22 11:17:29;;;;;;;1.37;1.27;;;;;;;;;;5016917;28;20212;-38
2023/07/22 11:19:58;;;;;;;1.38;1.27;;;;;;;;;;5017027;28;20233;-36
2023/07/22 11:22:25;;;;;;;2.90;1.00;;;;;;;;;;5019355;28;20218;-39
2023/07/22 11:24:53;;;;;;;1.45;1.30;;;;;;;;;;5012047;28;20257;-33
2023/07/22 11:27:20;;;;;;;2.10;1.55;;;;;;;;;;5026488;28;20234;-31
2023/07/22 11:29:49;;;;;;;1.42;1.27;;;;;;;;;;5029249;28;20237;-42
2023/07/22 11:32:17;;;;;;;1.30;1.20;;;;;;;;;;5031819;28;20247;-32
2023/07/22 11:34:45;;;;;;;1.42;1.20;;;;;;;;;;5031405;28;20222;-37
2023/07/22 11:37:14;;;;;;;2.90;1.13;;;;;;;;;;5023885;28;20207;-30
2023/07/22 11:39:43;;;;;;;3.30;1.00;;;;;;;;;;5011129;28;20239;-40
2023/07/22 11:42:11;;;;;;;0.90;0.90;;;;;;;;;;5016479;28;20211;-34
2023/07/22 11:44:38;;;;;;;1.92;1.30;;;;;;;;;;5020896;28;20294;-41
2023/07/22 11:47:07;;;;;;;1.40;1.30;;;;;;;;;;5013583;28;20203;-34
2023/07/22 11:49:35;;;;;;;2.45;1.40;;;;;;;;;;5026694;28;20230;-37
2023/07/22 11:52:03;;;;;;;2.13;1.17;;;;;;;;;;5018824;28;20203;-31
2023/07/22 11:54:33;;;;;;;1.40;1.30;;;;;;;;;;5015746;28;20223;-40
2023/07/22 11:57:10;;;;;;;1.27;1.00;;;;;;;;;;5011784;28;20218;-36
2023/07/22 11:59:38;;;;;;;1.77;1.00;;;;;;;;;;5019726;28;20440;-34
2023/07/22 12:02:05;;;;;;;1.17;1.08;;;;;;;;;;5029984;28;20289;-30
2023/07/22 12:04:33;;;;;;;1.50;1.40;;;;;;;;;;5024194;28;20199;-35
2023/07/22 12:07:00;;;;;;;1.65;1.25;;;;;;;;;;5019267;28;20202;-36
2023/07/22 12:09:31;;;;;;;3.10;1.55;;;;;;;;;;5120837;22;20240;-29
2023/07/22 12:12:14;;;;;;;2.08;1.40;;;;;;;;;;5031639;28;20266;-26
2023/07/22 12:14:45;;;;;;;5.43;1.70;;;;;;;;;;5026473;28;20217;-24
2023/07/22 12:17:19;;;;;;;2.03;1.30;;;;;;;;;;5014859;28;20271;-24
2023/07/22 12:20:02;;;;;;;2.50;1.83;;;;;;;;;;5020003;28;20226;-27
2023/07/22 12:22:35;;;;;;;2.08;1.10;;;;;;;;;;5022165;28;20207;-27
2023/07/22 12:25:03;;;;;;;1.17;1.10;;;;;;;;;;5023881;28;20209;-27
2023/07/22 12:27:59;;;;;;;1.33;1.30;;;;;;;;;;5018994;28;20238;-27
2023/07/22 12:30:40;;;;;;;2.28;1.10;;;;;;;;;;5070929;22;20325;-28
2023/07/22 12:33:20;;;;;;;1.80;1.40;;;;;;;;;;5054129;28;20232;-29
2023/07/22 12:35:49;;;;;;;1.95;1.60;;;;;;;;;;5044271;28;20582;-24
2023/07/22 12:38:17;;;;;;;1.90;1.48;;;;;;;;;;5042286;28;20289;-28
2023/07/22 12:40:45;;;;;;;3.60;1.50;;;;;;;;;;5017458;28;20265;-25
2023/07/22 12:43:16;;;;;;;3.88;1.60;;;;;;;;;;5019476;28;20237;-29
2023/07/22 12:45:59;;;;;;;2.63;1.70;;;;;;;;;;5017875;28;20231;-25
2023/07/22 12:48:36;;;;;;;1.65;1.55;;;;;;;;;;5013359;28;20245;-26
2023/07/22 12:51:13;;;;;;;1.90;1.50;;;;;;;;;;5033600;28;20255;-26
2023/07/22 12:53:44;;;;;;;1.55;1.45;;;;;;;;;;5032669;28;20238;-26
2023/07/22 12:56:14;;;;;;;1.90;1.67;;;;;;;;;;5030217;28;20296;-26
2023/07/22 12:58:43;;;;;;;1.75;1.35;;;;;;;;;;5030773;28;20317;-25
2023/07/22 13:01:19;;;;;;;1.67;1.42;;;;;;;;;;5021956;28;20204;-26
2023/07/22 13:03:50;;;;;;;2.10;1.50;;;;;;;;;;5013053;28;20263;-26
2023/07/22 13:06:17;;;;;;;2.30;1.60;;;;;;;;;;5019480;28;20216;-27
2023/07/22 13:09:01;;;;;;;1.42;1.30;;;;;;;;;;5025274;28;20237;-25
2023/07/22 13:11:37;;;;;;;1.42;1.33;;;;;;;;;;5019399;28;20203;-28
2023/07/22 13:14:11;;;;;;;3.05;1.60;;;;;;;;;;5031968;28;20250;-27
2023/07/22 13:16:42;;;;;;;2.42;1.60;;;;;;;;;;5015834;28;20262;-26
2023/07/22 13:19:10;;;;;;;3.10;1.30;;;;;;;;;;5027318;28;20315;-26
2023/07/22 13:21:38;;;;;;;1.75;1.50;;;;;;;;;;5025919;28;20225;-27
2023/07/22 13:24:08;;;;;;;4.03;1.48;;;;;;;;;;5012834;28;20429;-25
2023/07/22 13:26:42;;;;;;;1.48;1.38;;;;;;;;;;5014844;28;20274;-26
2023/07/22 13:29:12;;;;;;;2.22;1.50;;;;;;;;;;5016716;28;20236;-25
2023/07/22 13:31:43;;;;;;;1.98;1.52;;;;;;;;;;5026325;28;20219;-27
2023/07/22 13:34:12;;;;;;;1.60;1.30;;;;;;;;;;5024087;28;20220;-27
2023/07/22 13:36:43;;;;;;;3.40;1.77;;;;;;;;;;5019602;28;20206;-29
2023/07/22 13:39:10;;;;;;;1.90;1.80;;;;;;;;;;5032209;28;20274;-26
2023/07/22 13:41:42;;;;;;;1.92;1.58;;;;;;;;;;5015278;28;20233;-26
2023/07/22 13:44:13;;;;;;;1.67;1.58;;;;;;;;;;5025430;28;20237;-28
2023/07/22 13:46:44;;;;;;;2.28;1.40;;;;;;;;;;5031396;28;20732;-26
2023/07/22 13:49:17;;;;;;;1.67;1.58;;;;;;;;;;5032139;28;20228;-25
2023/07/22 13:51:46;;;;;;;1.17;0.93;;;;;;;;;;5024545;28;20272;-27
2023/07/22 13:54:16;;;;;;;1.63;1.50;;;;;;;;;;5023196;28;20213;-25
2023/07/22 13:56:47;;;;;;;2.28;1.70;;;;;;;;;;5027671;28;20209;-25
2023/07/22 13:59:18;;;;;;;2.10;1.90;;;;;;;;;;5025606;28;20247;-26
2023/07/22 14:01:58;;;;;;;1.80;1.70;;;;;;;;;;5032130;28;20264;-27
2023/07/22 14:04:30;;;;;;;1.55;1.40;;;;;;;;;;5032156;28;20212;-26
2023/07/22 14:07:04;;;;;;;3.28;1.67;;;;;;;;;;5022259;28;20623;-25
2023/07/22 14:09:36;;;;;;;3.35;1.77;;;;;;;;;;5031270;28;20227;-26
2023/07/22 14:12:15;;;;;;;7.75;2.05;;;;;;;;;;5017490;28;20265;-25
2023/07/22 14:14:44;;;;;;;1.65;1.55;;;;;;;;;;5020851;28;20227;-29
2023/07/22 14:17:15;;;;;;;2.08;1.67;;;;;;;;;;5031208;28;20624;-25
2023/07/22 14:19:51;;;;;;;3.05;2.00;;;;;;;;;;5031424;28;20316;-27
2023/07/22 14:22:20;;;;;;;2.40;2.20;;;;;;;;;;5023024;28;20204;-25
2023/07/22 14:24:49;;;;;;;2.40;2.00;;;;;;;;;;5026982;28;20232;-28
2023/07/22 14:27:20;;;;;;;2.15;1.88;;;;;;;;;;5015049;28;20216;-28
2023/07/22 14:29:51;;;;;;;2.95;2.10;;;;;;;;;;5021404;28;20322;-27
2023/07/22 14:32:22;;;;;;;5.45;2.30;;;;;;;;;;5011692;28;20208;-29
2023/07/22 14:34:52;;;;;;;2.70;1.80;;;;;;;;;;5017621;28;20244;-25
2023/07/22 14:37:24;;;;;;;2.42;1.85;;;;;;;;;;5030859;28;20233;-29
2023/07/22 14:39:53;;;;;;;3.30;2.08;;;;;;;;;;5014519;28;20227;-28
2023/07/22 14:42:21;;;;;;;2.85;2.00;;;;;;;;;;5016843;28;20216;-28
2023/07/22 14:44:58;;;;;;;2.00;1.88;;;;;;;;;;5014410;28;20205;-25
2023/07/22 14:47:44;;;;;;;2.55;2.30;;;;;;;;;;5011601;28;20216;-29
2023/07/22 14:58:04;;;;;;;2.53;1.98;;;;;;;;;;710631;22;20581;-29
2023/07/22 15:00:36;;;;;;;2.90;2.05;;;;;;;;;;5024857;28;20220;-27
2023/07/22 15:03:19;;;;;;;7.72;2.63;;;;;;;;;;5031003;28;20203;-26
2023/07/22 15:05:52;;;;;;;2.88;2.15;;;;;;;;;;5010047;28;20282;-27
2023/07/22 15:08:31;;;;;;;3.60;2.42;;;;;;;;;;4997952;28;20208;-26
2023/07/22 15:11:07;;;;;;;3.47;2.60;;;;;;;;;;5010655;28;20216;-26
2023/07/22 15:13:38;;;;;;;2.22;2.03;;;;;;;;;;5014982;28;20208;-28
2023/07/22 15:16:09;;;;;;;2.22;2.03;;;;;;;;;;5030555;28;20224;-25
2023/07/22 15:18:39;;;;;;;3.35;2.40;;;;;;;;;;5025426;28;20277;-28
2023/07/22 15:21:09;;;;;;;2.60;2.40;;;;;;;;;;5010904;28;20219;-25
2023/07/22 15:23:41;;;;;;;3.80;2.10;;;;;;;;;;5011177;28;20201;-24
2023/07/22 15:26:15;;;;;;;2.10;1.90;;;;;;;;;;5009930;28;20202;-29
2023/07/22 15:28:45;;;;;;;2.65;1.90;;;;;;;;;;5024335;28;20231;-29
2023/07/22 15:31:18;;;;;;;2.53;2.20;;;;;;;;;;5018102;28;20207;-29